Time;durP1;ratioP1;P1;durP2;ratioP2;P2;SDS_P1;SDS_P2;PMS_P1;PMS_P2;Temp;Humidity;BMP_temperature;BMP_pressure;BME280_temperature;BME280_humidity;BME280_pressure;Samples;Min_cycle;Max_cycle;Signal;HPM_P1;HPM_P2
2022/12/10 00:00:04;;;;;;;53.33;27.57;;;;;;;;;;5015025;28;20214;-61
2022/12/10 00:02:32;;;;;;;53.93;26.03;;;;;;;;;;5005990;28;20515;-62
2022/12/10 00:05:00;;;;;;;54.47;27.03;;;;;;;;;;5009276;28;20774;-63
2022/12/10 00:07:28;;;;;;;72.57;33.70;;;;;;;;;;5011966;28;20241;-63
2022/12/10 00:09:55;;;;;;;55.80;27.17;;;;;;;;;;5008942;28;20282;-63
2022/12/10 00:12:22;;;;;;;57.07;26.27;;;;;;;;;;5013680;28;20224;-61
2022/12/10 00:14:50;;;;;;;52.90;26.40;;;;;;;;;;5009143;28;20767;-62
2022/12/10 00:17:17;;;;;;;53.60;25.67;;;;;;;;;;5017517;28;20333;-61
2022/12/10 00:19:45;;;;;;;55.33;26.30;;;;;;;;;;5003521;28;20210;-62
2022/12/10 00:22:12;;;;;;;51.10;25.13;;;;;;;;;;5004278;28;20236;-63
2022/12/10 00:24:40;;;;;;;61.60;28.10;;;;;;;;;;5020756;28;20230;-63
2022/12/10 00:27:07;;;;;;;60.83;27.87;;;;;;;;;;5006977;28;20236;-62
2022/12/10 00:29:34;;;;;;;52.80;26.53;;;;;;;;;;5000539;28;20236;-63
2022/12/10 00:32:05;;;;;;;60.70;28.20;;;;;;;;;;4995104;28;20611;-62
2022/12/10 00:34:33;;;;;;;52.13;26.00;;;;;;;;;;4997020;28;20279;-62
2022/12/10 00:37:01;;;;;;;59.17;27.77;;;;;;;;;;5000897;28;20260;-63
2022/12/10 00:39:28;;;;;;;55.77;28.10;;;;;;;;;;5016757;28;22330;-64
2022/12/10 00:41:56;;;;;;;63.20;28.10;;;;;;;;;;5003660;28;20218;-63
2022/12/10 00:44:23;;;;;;;62.20;28.97;;;;;;;;;;4997081;28;20234;-63
2022/12/10 00:46:50;;;;;;;55.10;27.60;;;;;;;;;;5000579;28;20577;-64
2022/12/10 00:49:18;;;;;;;58.47;27.40;;;;;;;;;;5009926;28;20241;-63
2022/12/10 00:51:45;;;;;;;55.13;27.43;;;;;;;;;;4993274;28;20299;-63
2022/12/10 00:54:13;;;;;;;66.57;31.97;;;;;;;;;;4996659;28;20224;-63
2022/12/10 00:56:40;;;;;;;76.30;36.70;;;;;;;;;;4999334;28;20207;-63
2022/12/10 00:59:07;;;;;;;83.90;38.23;;;;;;;;;;5010196;28;20206;-63
2022/12/10 01:01:36;;;;;;;58.60;28.27;;;;;;;;;;4998779;28;20222;-63
2022/12/10 01:04:05;;;;;;;54.00;27.27;;;;;;;;;;5010569;28;20320;-62
2022/12/10 01:06:34;;;;;;;53.00;27.03;;;;;;;;;;5014191;28;20331;-63
2022/12/10 01:09:03;;;;;;;52.57;26.23;;;;;;;;;;4995380;28;20289;-63
2022/12/10 01:11:33;;;;;;;49.67;25.30;;;;;;;;;;4994445;28;20437;-64
2022/12/10 01:14:01;;;;;;;53.40;27.13;;;;;;;;;;5000962;28;20341;-63
2022/12/10 01:16:29;;;;;;;50.93;25.80;;;;;;;;;;4997191;28;20232;-64
2022/12/10 01:18:58;;;;;;;51.30;26.27;;;;;;;;;;4998077;28;20217;-63
2022/12/10 01:21:26;;;;;;;57.60;25.93;;;;;;;;;;4997914;28;20207;-63
2022/12/10 01:23:54;;;;;;;49.43;25.07;;;;;;;;;;4993191;28;20800;-62
2022/12/10 01:26:23;;;;;;;57.50;26.47;;;;;;;;;;5012678;28;20698;-64
2022/12/10 01:28:51;;;;;;;70.90;32.63;;;;;;;;;;5028113;28;20592;-63
2022/12/10 01:31:18;;;;;;;54.07;26.37;;;;;;;;;;5018958;28;20234;-63
2022/12/10 01:33:46;;;;;;;54.37;25.67;;;;;;;;;;5014242;28;20198;-62
2022/12/10 01:36:15;;;;;;;52.00;25.50;;;;;;;;;;5016010;28;20293;-63
2022/12/10 01:38:43;;;;;;;51.87;25.63;;;;;;;;;;5007222;28;20233;-62
2022/12/10 01:41:15;;;;;;;51.60;25.50;;;;;;;;;;4993477;28;20299;-62
2022/12/10 01:43:51;;;;;;;53.40;25.90;;;;;;;;;;5013204;28;20211;-63
2022/12/10 01:46:20;;;;;;;52.47;24.13;;;;;;;;;;5015874;28;20213;-61
2022/12/10 01:48:47;;;;;;;54.00;25.97;;;;;;;;;;5018802;28;20206;-63
2022/12/10 01:51:15;;;;;;;55.90;25.47;;;;;;;;;;5035797;28;20637;-63
2022/12/10 01:53:43;;;;;;;54.97;26.30;;;;;;;;;;5029928;28;20679;-63
2022/12/10 01:56:11;;;;;;;55.80;25.47;;;;;;;;;;5024661;28;20221;-63
2022/12/10 01:58:39;;;;;;;58.10;26.67;;;;;;;;;;5042487;28;20244;-62
2022/12/10 02:01:06;;;;;;;60.53;27.80;;;;;;;;;;5027156;28;20234;-63
2022/12/10 02:03:44;;;;;;;60.47;27.60;;;;;;;;;;5023146;28;20289;-61
2022/12/10 02:06:20;;;;;;;60.70;26.97;;;;;;;;;;5009074;28;20293;-64
2022/12/10 02:08:55;;;;;;;61.20;27.03;;;;;;;;;;5009437;28;20757;-63
2022/12/10 02:11:25;;;;;;;65.17;27.10;;;;;;;;;;4997217;28;20232;-62
2022/12/10 02:13:59;;;;;;;62.57;26.50;;;;;;;;;;5004350;28;20280;-63
2022/12/10 02:16:32;;;;;;;59.13;27.10;;;;;;;;;;4998203;28;20235;-62
2022/12/10 02:19:18;;;;;;;67.37;29.53;;;;;;;;;;5002749;28;20833;-62
2022/12/10 02:21:47;;;;;;;67.33;28.13;;;;;;;;;;5003107;28;20903;-62
2022/12/10 02:24:18;;;;;;;60.20;26.37;;;;;;;;;;5012941;28;20365;-61
2022/12/10 02:26:51;;;;;;;59.47;26.10;;;;;;;;;;4999406;28;20305;-62
2022/12/10 02:29:20;;;;;;;60.87;26.97;;;;;;;;;;4999576;28;20473;-64
2022/12/10 02:32:14;;;;;;;67.53;27.30;;;;;;;;;;4996260;28;20207;-63
2022/12/10 02:34:43;;;;;;;65.03;29.40;;;;;;;;;;4998442;28;20228;-63
2022/12/10 02:37:15;;;;;;;60.53;26.70;;;;;;;;;;5003253;28;20203;-63
2022/12/10 02:39:43;;;;;;;59.13;25.67;;;;;;;;;;5000997;28;20360;-64
2022/12/10 02:42:12;;;;;;;66.87;26.60;;;;;;;;;;4998979;28;20215;-62
2022/12/10 02:44:41;;;;;;;63.03;25.93;;;;;;;;;;5014662;28;20673;-61
2022/12/10 02:47:09;;;;;;;66.83;25.73;;;;;;;;;;4993220;28;20210;-64
2022/12/10 02:49:37;;;;;;;64.77;26.80;;;;;;;;;;4996712;28;20220;-61
2022/12/10 02:52:13;;;;;;;62.87;26.43;;;;;;;;;;4995184;28;20795;-63
2022/12/10 02:54:40;;;;;;;61.63;25.13;;;;;;;;;;5011736;28;20228;-63
2022/12/10 02:57:11;;;;;;;66.87;25.50;;;;;;;;;;5001534;28;20275;-63
2022/12/10 03:00:05;;;;;;;63.13;26.23;;;;;;;;;;5000167;28;20653;-62
2022/12/10 03:02:49;;;;;;;63.87;26.20;;;;;;;;;;4994303;28;20206;-63
2022/12/10 03:05:20;;;;;;;61.33;25.83;;;;;;;;;;4997022;28;20234;-62
2022/12/10 03:07:57;;;;;;;54.43;25.10;;;;;;;;;;4999443;28;20203;-62
2022/12/10 03:10:29;;;;;;;62.23;26.30;;;;;;;;;;4996650;28;20304;-63
2022/12/10 03:13:00;;;;;;;57.33;24.50;;;;;;;;;;4998887;28;20341;-62
2022/12/10 03:15:30;;;;;;;55.87;25.33;;;;;;;;;;5004557;28;20226;-63
2022/12/10 03:17:59;;;;;;;54.60;23.53;;;;;;;;;;5019879;28;20232;-62
2022/12/10 03:20:27;;;;;;;58.40;24.80;;;;;;;;;;5004591;28;20481;-62
2022/12/10 03:22:55;;;;;;;58.97;24.20;;;;;;;;;;5000824;28;20214;-63
2022/12/10 03:25:24;;;;;;;56.83;24.27;;;;;;;;;;4997847;28;20356;-62
2022/12/10 03:27:54;;;;;;;54.27;23.97;;;;;;;;;;5008167;28;20213;-63
2022/12/10 03:30:22;;;;;;;62.20;24.67;;;;;;;;;;5003112;28;22339;-63
2022/12/10 03:32:50;;;;;;;61.30;25.70;;;;;;;;;;4995352;28;20789;-64
2022/12/10 03:35:19;;;;;;;59.10;24.63;;;;;;;;;;5016708;28;20321;-61
2022/12/10 03:37:49;;;;;;;60.53;25.73;;;;;;;;;;4997585;28;20627;-61
2022/12/10 03:40:17;;;;;;;61.00;25.43;;;;;;;;;;4998418;28;20356;-62
2022/12/10 03:42:44;;;;;;;62.03;26.13;;;;;;;;;;5013288;28;20242;-63
2022/12/10 03:45:12;;;;;;;56.67;24.33;;;;;;;;;;5018871;28;20277;-62
2022/12/10 03:47:40;;;;;;;49.73;22.93;;;;;;;;;;5034791;28;20624;-64
2022/12/10 03:50:08;;;;;;;59.83;25.30;;;;;;;;;;5019971;28;20313;-62
2022/12/10 03:52:36;;;;;;;60.37;25.53;;;;;;;;;;5035542;28;20683;-63
2022/12/10 03:55:03;;;;;;;64.87;25.97;;;;;;;;;;5039227;28;20768;-62
2022/12/10 03:57:30;;;;;;;60.37;25.60;;;;;;;;;;5006783;28;21120;-62
2022/12/10 03:59:58;;;;;;;58.47;25.03;;;;;;;;;;5003487;28;20211;-61
2022/12/10 04:02:25;;;;;;;61.20;26.63;;;;;;;;;;4996635;28;21031;-61
2022/12/10 04:04:52;;;;;;;60.20;24.60;;;;;;;;;;5003164;28;21305;-62
2022/12/10 04:07:20;;;;;;;56.10;25.30;;;;;;;;;;4999799;28;20212;-63
2022/12/10 04:09:47;;;;;;;61.20;25.03;;;;;;;;;;5002926;28;20297;-61
2022/12/10 04:12:15;;;;;;;56.80;24.63;;;;;;;;;;5011738;28;20549;-62
2022/12/10 04:17:28;;;;;;;58.60;25.33;;;;;;;;;;5016707;28;20210;-61
2022/12/10 04:19:56;;;;;;;55.50;25.77;;;;;;;;;;4996922;28;20211;-61
2022/12/10 04:27:58;;;;;;;51.57;23.47;;;;;;;;;;5017445;28;20214;-63
2022/12/10 04:30:26;;;;;;;48.20;21.70;;;;;;;;;;5011908;28;20312;-63
2022/12/10 04:32:53;;;;;;;54.03;24.97;;;;;;;;;;4998118;28;20210;-60
2022/12/10 04:35:21;;;;;;;52.00;24.43;;;;;;;;;;4996527;28;20738;-63
2022/12/10 04:37:48;;;;;;;48.87;23.63;;;;;;;;;;5006359;28;20198;-61
2022/12/10 04:40:16;;;;;;;55.13;24.17;;;;;;;;;;5000604;28;20218;-61
2022/12/10 04:42:43;;;;;;;49.93;24.13;;;;;;;;;;4997592;28;22013;-63
2022/12/10 04:45:11;;;;;;;48.13;23.20;;;;;;;;;;5002319;28;20226;-61
2022/12/10 04:47:38;;;;;;;53.00;24.60;;;;;;;;;;5000619;28;20696;-63
2022/12/10 04:50:05;;;;;;;47.27;23.07;;;;;;;;;;5004923;28;20252;-61
2022/12/10 04:52:33;;;;;;;51.10;22.90;;;;;;;;;;5003029;28;20241;-61
2022/12/10 04:55:01;;;;;;;47.17;23.77;;;;;;;;;;5005933;28;20215;-63
2022/12/10 04:57:28;;;;;;;45.73;22.70;;;;;;;;;;5000083;28;20202;-62
2022/12/10 04:59:55;;;;;;;50.67;23.90;;;;;;;;;;5005335;28;20199;-63
2022/12/10 05:02:23;;;;;;;47.43;23.00;;;;;;;;;;4998115;28;20206;-61
2022/12/10 05:04:50;;;;;;;52.80;23.93;;;;;;;;;;5010720;28;20314;-61
2022/12/10 05:07:17;;;;;;;49.13;24.13;;;;;;;;;;5008288;28;20214;-63
2022/12/10 05:09:45;;;;;;;47.93;23.47;;;;;;;;;;5007177;28;20198;-62
2022/12/10 05:12:13;;;;;;;46.77;23.80;;;;;;;;;;5002006;28;20234;-62
2022/12/10 05:14:40;;;;;;;48.30;23.03;;;;;;;;;;5007829;28;20236;-62
2022/12/10 05:17:08;;;;;;;40.40;20.83;;;;;;;;;;4999810;28;20313;-63
2022/12/10 05:19:35;;;;;;;40.53;21.73;;;;;;;;;;4999652;28;20245;-62
2022/12/10 05:24:48;;;;;;;48.43;27.83;;;;;;;;;;5016154;28;20317;-61
2022/12/10 05:27:15;;;;;;;49.83;25.53;;;;;;;;;;5007331;28;20293;-62
2022/12/10 05:29:43;;;;;;;108.50;58.83;;;;;;;;;;5018355;28;20356;-62
2022/12/10 05:32:10;;;;;;;55.27;29.40;;;;;;;;;;5015613;28;20226;-63
2022/12/10 05:34:38;;;;;;;178.77;99.00;;;;;;;;;;5017274;28;20309;-61
2022/12/10 05:37:05;;;;;;;54.50;28.80;;;;;;;;;;5018034;28;20198;-63
2022/12/10 05:39:33;;;;;;;44.87;24.17;;;;;;;;;;4998058;28;20238;-62
2022/12/10 05:42:01;;;;;;;31.57;17.70;;;;;;;;;;5011482;28;21757;-63
2022/12/10 05:44:29;;;;;;;28.07;16.87;;;;;;;;;;5020406;28;20232;-62
2022/12/10 05:46:56;;;;;;;29.50;17.83;;;;;;;;;;5013650;28;20211;-62
2022/12/10 05:49:26;;;;;;;31.27;17.47;;;;;;;;;;5019434;28;20294;-63
2022/12/10 05:51:56;;;;;;;31.40;17.43;;;;;;;;;;5026322;28;20301;-62
2022/12/10 05:54:23;;;;;;;29.47;17.40;;;;;;;;;;5016753;28;20973;-62
2022/12/10 05:56:51;;;;;;;28.77;17.47;;;;;;;;;;5001535;28;20585;-62
2022/12/10 05:59:18;;;;;;;30.73;17.27;;;;;;;;;;5009265;28;20448;-62
2022/12/10 06:01:45;;;;;;;27.33;17.10;;;;;;;;;;5000598;28;20388;-61
2022/12/10 06:04:13;;;;;;;31.13;16.90;;;;;;;;;;5005669;28;20232;-63
2022/12/10 06:06:41;;;;;;;32.13;18.57;;;;;;;;;;5010704;28;20312;-63
2022/12/10 06:09:12;;;;;;;31.07;17.80;;;;;;;;;;4998348;28;20315;-61
2022/12/10 06:11:39;;;;;;;32.83;20.27;;;;;;;;;;5002300;28;20803;-63
2022/12/10 06:14:06;;;;;;;32.90;19.17;;;;;;;;;;5016475;28;20314;-62
2022/12/10 06:16:34;;;;;;;31.50;18.03;;;;;;;;;;4995540;28;20210;-62
2022/12/10 06:19:02;;;;;;;29.67;17.90;;;;;;;;;;5002695;28;20202;-63
2022/12/10 06:21:29;;;;;;;31.93;18.17;;;;;;;;;;4994090;28;20276;-63
2022/12/10 06:23:56;;;;;;;29.23;17.97;;;;;;;;;;5000488;28;20205;-63
2022/12/10 06:26:25;;;;;;;32.17;18.50;;;;;;;;;;5017656;28;20659;-63
2022/12/10 06:28:53;;;;;;;34.93;18.63;;;;;;;;;;5007323;28;20207;-62
2022/12/10 06:31:20;;;;;;;32.73;18.33;;;;;;;;;;5000334;28;20685;-62
2022/12/10 06:33:48;;;;;;;33.43;20.00;;;;;;;;;;5000241;28;20206;-62
2022/12/10 06:36:16;;;;;;;31.87;17.83;;;;;;;;;;5005971;28;20749;-63
2022/12/10 06:38:44;;;;;;;27.30;16.80;;;;;;;;;;5001242;28;20206;-62
2022/12/10 06:41:12;;;;;;;28.67;17.20;;;;;;;;;;5002266;28;20218;-63
2022/12/10 06:43:40;;;;;;;28.03;16.97;;;;;;;;;;4999121;28;20205;-62
2022/12/10 06:46:08;;;;;;;26.47;16.60;;;;;;;;;;5004473;28;20301;-61
2022/12/10 06:48:35;;;;;;;26.47;16.77;;;;;;;;;;5001052;28;23198;-61
2022/12/10 06:51:04;;;;;;;32.77;20.13;;;;;;;;;;5014300;28;20353;-61
2022/12/10 06:53:32;;;;;;;53.67;29.47;;;;;;;;;;5002736;28;20248;-63
2022/12/10 06:56:00;;;;;;;29.83;20.87;;;;;;;;;;5006075;28;20229;-61
2022/12/10 06:58:32;;;;;;;20.63;14.47;;;;;;;;;;5004090;28;20211;-63
2022/12/10 07:01:07;;;;;;;24.23;17.03;;;;;;;;;;5007307;28;20220;-62
2022/12/10 07:03:34;;;;;;;27.67;19.23;;;;;;;;;;5027484;28;20424;-61
2022/12/10 07:06:02;;;;;;;23.60;17.27;;;;;;;;;;4999880;28;20225;-61
2022/12/10 07:08:30;;;;;;;22.23;13.47;;;;;;;;;;5009763;28;20295;-61
2022/12/10 07:10:57;;;;;;;21.97;14.60;;;;;;;;;;5009639;28;20267;-61
2022/12/10 07:13:24;;;;;;;21.23;13.10;;;;;;;;;;5013279;28;20297;-62
2022/12/10 07:15:57;;;;;;;19.80;13.13;;;;;;;;;;5008011;28;20979;-61
2022/12/10 07:18:25;;;;;;;21.03;13.67;;;;;;;;;;5026271;28;20216;-61
2022/12/10 07:20:52;;;;;;;19.87;12.90;;;;;;;;;;5009516;28;20940;-63
2022/12/10 07:23:20;;;;;;;21.87;14.17;;;;;;;;;;5011990;28;20301;-62
2022/12/10 07:25:47;;;;;;;24.93;16.30;;;;;;;;;;5010920;28;20248;-61
2022/12/10 07:28:14;;;;;;;22.70;14.27;;;;;;;;;;5014154;28;20317;-63
2022/12/10 07:30:42;;;;;;;24.23;15.80;;;;;;;;;;5006806;28;20214;-61
2022/12/10 07:33:12;;;;;;;24.53;15.20;;;;;;;;;;5026926;28;20233;-63
2022/12/10 07:35:40;;;;;;;25.10;15.93;;;;;;;;;;5004413;28;20279;-61
2022/12/10 07:38:15;;;;;;;23.17;15.03;;;;;;;;;;5012891;28;20565;-63
2022/12/10 07:40:42;;;;;;;17.63;12.53;;;;;;;;;;5009331;28;23503;-61
2022/12/10 07:43:09;;;;;;;20.57;12.80;;;;;;;;;;5024584;28;20289;-64
2022/12/10 07:45:37;;;;;;;18.37;12.70;;;;;;;;;;5024971;28;20223;-62
2022/12/10 07:48:04;;;;;;;18.23;12.70;;;;;;;;;;5021304;28;20209;-62
2022/12/10 07:50:32;;;;;;;17.93;12.30;;;;;;;;;;5041381;28;20226;-63
2022/12/10 07:52:59;;;;;;;18.43;12.33;;;;;;;;;;5010961;28;20231;-60
2022/12/10 07:55:26;;;;;;;18.10;12.87;;;;;;;;;;5020388;28;20349;-62
2022/12/10 07:57:54;;;;;;;20.27;13.23;;;;;;;;;;5005966;28;20293;-63
2022/12/10 08:00:21;;;;;;;18.37;12.40;;;;;;;;;;5025955;28;20703;-63
2022/12/10 08:02:49;;;;;;;24.03;14.20;;;;;;;;;;5006961;28;20719;-62
2022/12/10 08:05:16;;;;;;;17.60;12.30;;;;;;;;;;5005191;28;20318;-62
2022/12/10 08:07:44;;;;;;;19.60;12.90;;;;;;;;;;5005595;28;20238;-62
2022/12/10 08:10:11;;;;;;;17.03;12.00;;;;;;;;;;5022421;28;20214;-63
2022/12/10 08:12:39;;;;;;;20.43;13.40;;;;;;;;;;5017557;28;20410;-62
2022/12/10 08:15:07;;;;;;;24.60;15.17;;;;;;;;;;5024447;28;20440;-62
2022/12/10 08:17:35;;;;;;;35.03;20.43;;;;;;;;;;5007296;28;20311;-62
2022/12/10 08:20:03;;;;;;;31.63;19.63;;;;;;;;;;5019277;28;20202;-62
2022/12/10 08:22:30;;;;;;;33.67;20.07;;;;;;;;;;5002553;28;20210;-62
2022/12/10 08:24:57;;;;;;;30.73;17.70;;;;;;;;;;5014718;28;20268;-61
2022/12/10 08:27:25;;;;;;;80.43;49.13;;;;;;;;;;5003496;28;20980;-63
2022/12/10 08:29:52;;;;;;;27.03;17.73;;;;;;;;;;4991190;28;20206;-63
2022/12/10 08:32:19;;;;;;;21.67;14.67;;;;;;;;;;4998040;28;20607;-61
2022/12/10 08:34:48;;;;;;;26.23;16.70;;;;;;;;;;4995632;28;20308;-62
2022/12/10 08:37:15;;;;;;;16.80;12.47;;;;;;;;;;4997767;28;20329;-62
2022/12/10 08:39:43;;;;;;;18.93;13.50;;;;;;;;;;5003224;28;20296;-63
2022/12/10 08:42:10;;;;;;;21.23;14.00;;;;;;;;;;5000060;28;20213;-61
2022/12/10 08:44:37;;;;;;;19.67;12.87;;;;;;;;;;5012601;28;20703;-63
2022/12/10 08:47:05;;;;;;;19.87;14.77;;;;;;;;;;4986617;28;20352;-62
2022/12/10 08:49:32;;;;;;;19.63;13.03;;;;;;;;;;5006320;28;20260;-61
2022/12/10 08:52:00;;;;;;;22.10;15.67;;;;;;;;;;5022518;28;20321;-62
2022/12/10 08:54:27;;;;;;;15.97;11.70;;;;;;;;;;5001656;28;20230;-62
2022/12/10 08:56:55;;;;;;;17.60;12.10;;;;;;;;;;4994472;28;20275;-62
2022/12/10 08:59:23;;;;;;;18.80;13.33;;;;;;;;;;5016593;28;20206;-62
2022/12/10 09:01:52;;;;;;;21.30;14.47;;;;;;;;;;5023126;28;20690;-61
2022/12/10 09:04:23;;;;;;;22.03;15.93;;;;;;;;;;4999287;28;20599;-63
2022/12/10 09:06:50;;;;;;;23.00;14.87;;;;;;;;;;4999930;28;20205;-62
2022/12/10 09:09:17;;;;;;;18.13;13.07;;;;;;;;;;4996308;28;20214;-62
2022/12/10 09:11:45;;;;;;;16.40;11.90;;;;;;;;;;4993011;28;20357;-62
2022/12/10 09:14:13;;;;;;;15.53;11.60;;;;;;;;;;4999313;28;20213;-63
2022/12/10 09:16:40;;;;;;;17.23;11.23;;;;;;;;;;4991876;28;20210;-62
2022/12/10 09:19:08;;;;;;;14.83;10.73;;;;;;;;;;5001864;28;20210;-63
2022/12/10 09:21:36;;;;;;;17.03;11.37;;;;;;;;;;4986869;28;20214;-64
2022/12/10 09:24:04;;;;;;;13.60;9.70;;;;;;;;;;4998347;28;21937;-64
2022/12/10 09:26:31;;;;;;;13.77;10.10;;;;;;;;;;5010333;28;20216;-63
2022/12/10 09:28:59;;;;;;;14.60;10.60;;;;;;;;;;5012382;28;20283;-61
2022/12/10 09:31:27;;;;;;;15.60;10.10;;;;;;;;;;5020667;28;20235;-61
2022/12/10 09:33:55;;;;;;;22.80;12.97;;;;;;;;;;5024353;28;20201;-62
2022/12/10 09:36:22;;;;;;;13.23;9.87;;;;;;;;;;5015187;28;20206;-63
2022/12/10 09:38:56;;;;;;;13.20;10.07;;;;;;;;;;5011660;28;20201;-63
2022/12/10 09:41:39;;;;;;;13.80;10.43;;;;;;;;;;5013905;28;20209;-62
2022/12/10 09:44:25;;;;;;;16.00;11.83;;;;;;;;;;5014788;28;20241;-63
2022/12/10 09:46:54;;;;;;;17.23;10.97;;;;;;;;;;5018251;28;20206;-63
2022/12/10 09:49:33;;;;;;;12.90;9.70;;;;;;;;;;5033249;28;20207;-63
2022/12/10 09:52:02;;;;;;;15.20;11.27;;;;;;;;;;5037125;28;20345;-63
2022/12/10 09:54:40;;;;;;;16.57;11.50;;;;;;;;;;5034107;28;20313;-63
2022/12/10 09:57:11;;;;;;;15.67;10.70;;;;;;;;;;5045382;28;20255;-63
2022/12/10 09:59:41;;;;;;;17.83;11.80;;;;;;;;;;5024239;28;20238;-63
2022/12/10 10:02:23;;;;;;;14.73;10.40;;;;;;;;;;5038972;28;20226;-62
2022/12/10 10:04:52;;;;;;;16.03;11.53;;;;;;;;;;5028185;28;20256;-63
2022/12/10 10:07:27;;;;;;;15.43;10.97;;;;;;;;;;5036786;28;20198;-62
2022/12/10 10:09:57;;;;;;;17.27;11.43;;;;;;;;;;5039377;28;20292;-63
2022/12/10 10:12:27;;;;;;;15.43;11.63;;;;;;;;;;5029907;28;20221;-61
2022/12/10 10:14:54;;;;;;;18.90;12.07;;;;;;;;;;5012764;28;20236;-63
2022/12/10 10:17:38;;;;;;;19.87;12.93;;;;;;;;;;5031387;28;20198;-63
2022/12/10 10:20:05;;;;;;;18.23;12.23;;;;;;;;;;5018850;28;20325;-63
2022/12/10 10:22:33;;;;;;;18.13;12.00;;;;;;;;;;5028797;28;20241;-63
2022/12/10 10:25:02;;;;;;;17.60;11.97;;;;;;;;;;5042542;28;20226;-63
2022/12/10 10:27:31;;;;;;;21.60;13.50;;;;;;;;;;5028044;28;20221;-63
2022/12/10 10:30:00;;;;;;;16.23;11.77;;;;;;;;;;5018753;28;20257;-63
2022/12/10 10:32:47;;;;;;;16.00;11.73;;;;;;;;;;5020306;28;20628;-61
2022/12/10 10:35:27;;;;;;;14.40;11.00;;;;;;;;;;5029330;28;20217;-61
2022/12/10 10:37:59;;;;;;;16.10;12.00;;;;;;;;;;5020086;28;20263;-63
2022/12/10 10:40:26;;;;;;;21.63;13.17;;;;;;;;;;5022380;28;20340;-63
2022/12/10 10:42:55;;;;;;;16.80;11.50;;;;;;;;;;5045684;22;20663;-62
2022/12/10 10:45:48;;;;;;;14.47;11.13;;;;;;;;;;5044443;28;20371;-62
2022/12/10 10:48:20;;;;;;;16.67;11.40;;;;;;;;;;5049497;28;20205;-63
2022/12/10 10:50:51;;;;;;;17.47;11.17;;;;;;;;;;5034163;28;20297;-63
2022/12/10 10:53:22;;;;;;;16.07;11.60;;;;;;;;;;5029973;28;20423;-62
2022/12/10 10:55:50;;;;;;;15.30;11.60;;;;;;;;;;5025589;28;20313;-61
2022/12/10 10:58:21;;;;;;;17.10;11.73;;;;;;;;;;5030845;28;20284;-61
2022/12/10 11:00:59;;;;;;;19.67;13.10;;;;;;;;;;5028907;28;20409;-62
2022/12/10 11:03:31;;;;;;;16.77;11.93;;;;;;;;;;5025679;28;20205;-62
2022/12/10 11:05:59;;;;;;;18.37;12.50;;;;;;;;;;5035403;28;20317;-61
2022/12/10 11:08:29;;;;;;;23.43;13.87;;;;;;;;;;5039937;28;20586;-62
2022/12/10 11:11:05;;;;;;;24.20;16.07;;;;;;;;;;5037256;28;20290;-61
2022/12/10 11:13:35;;;;;;;25.70;18.37;;;;;;;;;;5029608;28;20344;-61
2022/12/10 11:16:11;;;;;;;26.50;18.00;;;;;;;;;;5012911;28;20228;-61
2022/12/10 11:18:42;;;;;;;30.90;20.07;;;;;;;;;;5025709;28;20348;-61
2022/12/10 11:21:13;;;;;;;29.43;19.57;;;;;;;;;;5029071;28;20212;-61
2022/12/10 11:23:41;;;;;;;28.50;19.47;;;;;;;;;;5010599;28;20210;-62
2022/12/10 11:26:16;;;;;;;31.00;19.97;;;;;;;;;;5025350;28;20516;-62
2022/12/10 11:28:51;;;;;;;39.30;24.60;;;;;;;;;;5034475;28;20808;-61
2022/12/10 11:31:18;;;;;;;28.30;17.63;;;;;;;;;;5036705;28;20201;-60
2022/12/10 11:33:55;;;;;;;28.00;18.00;;;;;;;;;;5021095;28;20242;-62
2022/12/10 11:36:25;;;;;;;23.87;16.10;;;;;;;;;;5029092;28;20217;-62
2022/12/10 11:39:24;;;;;;;28.53;17.27;;;;;;;;;;5032023;28;21513;-61
2022/12/10 11:42:10;;;;;;;25.47;16.70;;;;;;;;;;5022526;28;20336;-61
2022/12/10 11:44:52;;;;;;;22.27;14.63;;;;;;;;;;5025357;28;20229;-63
2022/12/10 11:47:23;;;;;;;32.03;19.50;;;;;;;;;;5014972;28;20213;-60
2022/12/10 11:49:50;;;;;;;21.80;14.93;;;;;;;;;;5033428;28;20201;-61
2022/12/10 11:52:36;;;;;;;36.33;22.93;;;;;;;;;;5022394;28;20221;-62
2022/12/10 11:55:06;;;;;;;18.70;13.40;;;;;;;;;;5029015;28;20222;-60
2022/12/10 11:57:49;;;;;;;18.37;12.93;;;;;;;;;;5028022;28;20211;-61
2022/12/10 12:00:20;;;;;;;19.90;13.90;;;;;;;;;;5035296;28;20335;-62
2022/12/10 12:02:57;;;;;;;20.67;14.00;;;;;;;;;;5057976;28;20224;-63
2022/12/10 12:05:25;;;;;;;19.80;13.27;;;;;;;;;;5047004;28;20238;-62
2022/12/10 12:08:04;;;;;;;19.23;14.33;;;;;;;;;;5031450;28;20229;-62
2022/12/10 12:11:11;;;;;;;18.80;13.57;;;;;;;;;;5025714;28;22177;-62
2022/12/10 12:13:42;;;;;;;23.00;15.40;;;;;;;;;;4936855;28;20236;-63
2022/12/10 12:16:17;;;;;;;23.03;15.67;;;;;;;;;;4917830;28;21341;-63
2022/12/10 12:18:49;;;;;;;18.97;14.27;;;;;;;;;;4980376;28;20685;-62
2022/12/10 12:21:17;;;;;;;18.37;12.97;;;;;;;;;;5039887;28;20253;-61
2022/12/10 12:23:47;;;;;;;17.57;13.37;;;;;;;;;;5039210;28;20212;-61
2022/12/10 12:26:35;;;;;;;18.33;14.17;;;;;;;;;;5038241;28;20251;-63
2022/12/10 12:29:09;;;;;;;19.57;13.70;;;;;;;;;;5055196;28;20854;-63
2022/12/10 12:31:38;;;;;;;22.20;16.87;;;;;;;;;;5035248;28;20211;-62
2022/12/10 12:34:15;;;;;;;24.00;14.27;;;;;;;;;;5048206;28;20758;-62
2022/12/10 12:36:42;;;;;;;21.17;15.20;;;;;;;;;;5039003;28;20911;-62
2022/12/10 12:39:28;;;;;;;19.97;14.60;;;;;;;;;;5030757;28;20198;-63
2022/12/10 12:42:00;;;;;;;21.07;14.60;;;;;;;;;;5044081;28;20229;-62
2022/12/10 12:44:42;;;;;;;22.07;14.20;;;;;;;;;;5025764;28;20276;-62
2022/12/10 12:47:30;;;;;;;24.27;15.90;;;;;;;;;;5044992;28;20213;-63
2022/12/10 12:49:58;;;;;;;21.40;14.33;;;;;;;;;;4991428;28;20296;-62
2022/12/10 12:52:33;;;;;;;24.67;16.30;;;;;;;;;;5031035;28;20364;-62
2022/12/10 12:55:04;;;;;;;25.27;16.90;;;;;;;;;;5030316;28;20228;-62
2022/12/10 12:57:40;;;;;;;21.73;15.03;;;;;;;;;;5028470;28;20209;-62
2022/12/10 13:00:14;;;;;;;23.13;16.00;;;;;;;;;;5042813;28;20337;-63
2022/12/10 13:02:51;;;;;;;22.33;14.50;;;;;;;;;;5027303;28;20219;-63
2022/12/10 13:05:21;;;;;;;20.43;13.80;;;;;;;;;;5030384;28;20228;-62
2022/12/10 13:08:12;;;;;;;22.03;15.80;;;;;;;;;;5027887;28;20893;-62
2022/12/10 13:10:46;;;;;;;21.43;15.47;;;;;;;;;;5012742;28;20217;-63
2022/12/10 13:13:24;;;;;;;24.73;16.50;;;;;;;;;;5044692;28;20784;-62
2022/12/10 13:15:51;;;;;;;25.83;16.53;;;;;;;;;;5030251;28;20314;-61
2022/12/10 13:18:21;;;;;;;26.53;17.23;;;;;;;;;;5026719;28;20210;-62
2022/12/10 13:21:12;;;;;;;23.60;16.33;;;;;;;;;;5042715;28;20263;-61
2022/12/10 13:23:50;;;;;;;25.40;16.93;;;;;;;;;;5018713;28;20496;-62
2022/12/10 13:26:41;;;;;;;24.43;16.80;;;;;;;;;;5021239;28;20205;-62
2022/12/10 13:29:18;;;;;;;24.50;16.47;;;;;;;;;;5023145;28;20383;-63
2022/12/10 13:31:55;;;;;;;22.40;15.43;;;;;;;;;;5034394;28;20211;-61
2022/12/10 13:34:49;;;;;;;19.20;13.33;;;;;;;;;;5022618;28;20233;-61
2022/12/10 13:37:18;;;;;;;17.87;12.47;;;;;;;;;;5013361;28;20237;-62
2022/12/10 13:39:46;;;;;;;19.23;12.53;;;;;;;;;;5022249;28;20783;-63
2022/12/10 13:45:17;;;;;;;19.43;13.33;;;;;;;;;;5042664;28;20220;-61
2022/12/10 13:47:49;;;;;;;19.87;13.13;;;;;;;;;;5028687;28;20320;-61
2022/12/10 13:50:28;;;;;;;22.73;13.93;;;;;;;;;;5029458;28;20290;-61
2022/12/10 13:53:15;;;;;;;18.33;12.30;;;;;;;;;;5048767;28;20257;-62
2022/12/10 13:56:01;;;;;;;18.23;12.30;;;;;;;;;;5042210;28;20252;-62
2022/12/10 13:58:32;;;;;;;17.10;11.43;;;;;;;;;;5054352;28;20200;-61
2022/12/10 14:01:08;;;;;;;17.87;12.10;;;;;;;;;;5042433;28;20279;-61
2022/12/10 14:03:48;;;;;;;16.27;11.77;;;;;;;;;;5042959;28;20219;-61
2022/12/10 14:06:15;;;;;;;19.30;13.33;;;;;;;;;;5023085;28;20216;-61
2022/12/10 14:08:50;;;;;;;23.10;14.70;;;;;;;;;;5041932;28;20299;-63
2022/12/10 14:11:21;;;;;;;24.73;15.80;;;;;;;;;;5038895;28;20689;-63
2022/12/10 14:13:52;;;;;;;20.10;14.53;;;;;;;;;;5018576;28;20580;-63
2022/12/10 14:16:22;;;;;;;20.27;13.40;;;;;;;;;;5023304;28;20204;-61
2022/12/10 14:18:54;;;;;;;20.97;12.60;;;;;;;;;;5020988;28;20227;-61
2022/12/10 14:21:24;;;;;;;18.47;12.73;;;;;;;;;;5028301;28;20218;-63
2022/12/10 14:23:52;;;;;;;16.60;11.43;;;;;;;;;;5037080;28;20763;-61
2022/12/10 14:26:28;;;;;;;17.60;12.07;;;;;;;;;;5040799;28;20231;-61
2022/12/10 14:28:57;;;;;;;21.03;11.40;;;;;;;;;;5032187;28;20261;-64
2022/12/10 14:31:45;;;;;;;18.00;11.37;;;;;;;;;;5047338;28;20299;-61
2022/12/10 14:34:15;;;;;;;15.03;10.60;;;;;;;;;;5030698;28;20282;-61
2022/12/10 14:36:46;;;;;;;17.43;11.20;;;;;;;;;;5035615;28;20702;-62
2022/12/10 14:39:18;;;;;;;15.40;10.73;;;;;;;;;;5025158;28;20205;-62
2022/12/10 14:41:47;;;;;;;13.90;10.37;;;;;;;;;;5010267;28;20659;-65
2022/12/10 14:44:16;;;;;;;17.43;10.90;;;;;;;;;;5006446;28;20247;-62
2022/12/10 14:46:44;;;;;;;15.23;10.60;;;;;;;;;;5012676;28;20214;-62
2022/12/10 14:49:16;;;;;;;15.63;10.70;;;;;;;;;;5011168;28;20265;-61